sensor_id;sensor_type;location;lat;lon;timestamp;pressure;altitude;pressure_sealevel;temperature;humidity
42771;BME280;28426;42.872;25.314;2023-03-01T00:01:11;97729.59;;;2.46;100.00
42771;BME280;28426;42.872;25.314;2023-03-01T00:03:42;97734.16;;;2.55;100.00
42771;BME280;28426;42.872;25.314;2023-03-01T00:06:16;97727.06;;;2.56;100.00
42771;BME280;28426;42.872;25.314;2023-03-01T00:08:47;97720.47;;;2.50;100.00
42771;BME280;28426;42.872;25.314;2023-03-01T00:11:20;97717.09;;;2.37;100.00
42771;BME280;28426;42.872;25.314;2023-03-01T00:13:52;97717.00;;;2.27;100.00
42771;BME280;28426;42.872;25.314;2023-03-01T00:16:28;97702.03;;;2.39;100.00
42771;BME280;28426;42.872;25.314;2023-03-01T00:18:59;97707.06;;;2.42;100.00
42771;BME280;28426;42.872;25.314;2023-03-01T00:21:32;97698.28;;;2.30;100.00
42771;BME280;28426;42.872;25.314;2023-03-01T00:24:03;97701.53;;;2.22;100.00
42771;BME280;28426;42.872;25.314;2023-03-01T00:26:34;97697.81;;;2.13;100.00
42771;BME280;28426;42.872;25.314;2023-03-01T00:29:05;97692.31;;;2.28;100.00
42771;BME280;28426;42.872;25.314;2023-03-01T00:31:36;97682.28;;;2.33;100.00
42771;BME280;28426;42.872;25.314;2023-03-01T00:34:06;97693.53;;;2.46;100.00
42771;BME280;28426;42.872;25.314;2023-03-01T00:36:40;97689.47;;;2.42;100.00
42771;BME280;28426;42.872;25.314;2023-03-01T00:39:12;97680.56;;;2.09;95.48
42771;BME280;28426;42.872;25.314;2023-03-01T00:41:44;97675.78;;;1.67;92.93
42771;BME280;28426;42.872;25.314;2023-03-01T00:44:14;97677.44;;;1.32;95.13
42771;BME280;28426;42.872;25.314;2023-03-01T00:46:45;97675.47;;;0.98;93.93
42771;BME280;28426;42.872;25.314;2023-03-01T00:49:15;97673.88;;;0.71;95.30
42771;BME280;28426;42.872;25.314;2023-03-01T00:51:49;97682.00;;;0.55;97.86
42771;BME280;28426;42.872;25.314;2023-03-01T00:54:19;97665.59;;;0.51;99.17
42771;BME280;28426;42.872;25.314;2023-03-01T00:56:50;97665.94;;;0.47;100.00
42771;BME280;28426;42.872;25.314;2023-03-01T00:59:20;97662.56;;;0.45;100.00
42771;BME280;28426;42.872;25.314;2023-03-01T01:01:51;97666.44;;;0.52;100.00
42771;BME280;28426;42.872;25.314;2023-03-01T01:04:22;97669.47;;;0.59;100.00
42771;BME280;28426;42.872;25.314;2023-03-01T01:06:55;97667.25;;;0.65;100.00
42771;BME280;28426;42.872;25.314;2023-03-01T01:09:26;97669.44;;;0.72;100.00
42771;BME280;28426;42.872;25.314;2023-03-01T01:11:56;97672.72;;;0.75;100.00
42771;BME280;28426;42.872;25.314;2023-03-01T01:14:27;97670.19;;;0.74;100.00
42771;BME280;28426;42.872;25.314;2023-03-01T01:16:58;97660.84;;;0.70;100.00
42771;BME280;28426;42.872;25.314;2023-03-01T01:19:28;97660.84;;;0.70;100.00
42771;BME280;28426;42.872;25.314;2023-03-01T01:22:02;97658.22;;;0.70;100.00
42771;BME280;28426;42.872;25.314;2023-03-01T01:24:32;97660.84;;;0.70;100.00
42771;BME280;28426;42.872;25.314;2023-03-01T01:27:03;97670.41;;;0.71;100.00
42771;BME280;28426;42.872;25.314;2023-03-01T01:29:34;97667.44;;;0.75;100.00
42771;BME280;28426;42.872;25.314;2023-03-01T01:32:05;97664.06;;;0.86;100.00
42771;BME280;28426;42.872;25.314;2023-03-01T01:34:36;97664.72;;;1.01;100.00
42771;BME280;28426;42.872;25.314;2023-03-01T01:37:09;97662.56;;;1.20;100.00
42771;BME280;28426;42.872;25.314;2023-03-01T01:39:40;97658.59;;;1.38;100.00
42771;BME280;28426;42.872;25.314;2023-03-01T01:42:14;97654.59;;;1.57;100.00
42771;BME280;28426;42.872;25.314;2023-03-01T01:44:46;97651.53;;;1.75;100.00
42771;BME280;28426;42.872;25.314;2023-03-01T01:47:20;97645.84;;;1.92;100.00
42771;BME280;28426;42.872;25.314;2023-03-01T01:49:54;97642.88;;;2.08;100.00
42771;BME280;28426;42.872;25.314;2023-03-01T01:52:31;97658.44;;;2.23;100.00
42771;BME280;28426;42.872;25.314;2023-03-01T01:55:07;97645.97;;;2.37;100.00
42771;BME280;28426;42.872;25.314;2023-03-01T01:57:41;97649.34;;;2.50;100.00
42771;BME280;28426;42.872;25.314;2023-03-01T02:00:16;97653.91;;;2.59;100.00
42771;BME280;28426;42.872;25.314;2023-03-01T02:02:52;97654.84;;;2.70;100.00
42771;BME280;28426;42.872;25.314;2023-03-01T02:05:31;97653.16;;;2.80;100.00
42771;BME280;28426;42.872;25.314;2023-03-01T02:08:07;97645.47;;;2.88;100.00
42771;BME280;28426;42.872;25.314;2023-03-01T02:10:38;97648.47;;;2.95;100.00
42771;BME280;28426;42.872;25.314;2023-03-01T02:13:10;97649.78;;;3.01;100.00
42771;BME280;28426;42.872;25.314;2023-03-01T02:15:42;97648.41;;;3.07;100.00
42771;BME280;28426;42.872;25.314;2023-03-01T02:18:17;97646.28;;;3.12;100.00
42771;BME280;28426;42.872;25.314;2023-03-01T02:20:58;97640.72;;;3.15;100.00
42771;BME280;28426;42.872;25.314;2023-03-01T02:23:36;97638.53;;;3.20;100.00
42771;BME280;28426;42.872;25.314;2023-03-01T02:26:14;97633.03;;;3.23;100.00
42771;BME280;28426;42.872;25.314;2023-03-01T02:28:51;97629.09;;;3.18;100.00
42771;BME280;28426;42.872;25.314;2023-03-01T02:31:22;97625.50;;;3.19;100.00
42771;BME280;28426;42.872;25.314;2023-03-01T02:34:06;97623.75;;;3.08;100.00
42771;BME280;28426;42.872;25.314;2023-03-01T02:36:39;97625.41;;;3.09;100.00
42771;BME280;28426;42.872;25.314;2023-03-01T02:39:14;97630.97;;;2.94;100.00
42771;BME280;28426;42.872;25.314;2023-03-01T02:41:49;97633.34;;;2.97;100.00
42771;BME280;28426;42.872;25.314;2023-03-01T02:44:23;97637.81;;;2.85;100.00
42771;BME280;28426;42.872;25.314;2023-03-01T02:46:56;97635.78;;;2.89;100.00
42771;BME280;28426;42.872;25.314;2023-03-01T02:49:28;97633.63;;;2.83;100.00
42771;BME280;28426;42.872;25.314;2023-03-01T02:52:26;97631.44;;;2.88;100.00
42771;BME280;28426;42.872;25.314;2023-03-01T02:55:01;97628.47;;;2.81;100.00
42771;BME280;28426;42.872;25.314;2023-03-01T02:57:34;97631.00;;;2.71;100.00
42771;BME280;28426;42.872;25.314;2023-03-01T03:00:11;97627.06;;;2.54;100.00
42771;BME280;28426;42.872;25.314;2023-03-01T03:02:48;97631.03;;;2.37;99.43
42771;BME280;28426;42.872;25.314;2023-03-01T03:05:23;97629.94;;;2.40;100.00
42771;BME280;28426;42.872;25.314;2023-03-01T03:07:57;97635.69;;;2.45;100.00
42771;BME280;28426;42.872;25.314;2023-03-01T03:10:32;97630.06;;;2.50;100.00
42771;BME280;28426;42.872;25.314;2023-03-01T03:13:05;97624.31;;;2.56;100.00
42771;BME280;28426;42.872;25.314;2023-03-01T03:15:40;97629.84;;;2.53;100.00
42771;BME280;28426;42.872;25.314;2023-03-01T03:18:13;97621.81;;;2.43;100.00
42771;BME280;28426;42.872;25.314;2023-03-01T03:20:44;97632.22;;;2.33;100.00
42771;BME280;28426;42.872;25.314;2023-03-01T03:23:15;97619.28;;;2.30;100.00
42771;BME280;28426;42.872;25.314;2023-03-01T03:25:48;97621.94;;;2.41;100.00
42771;BME280;28426;42.872;25.314;2023-03-01T03:28:18;97617.75;;;2.39;100.00
42771;BME280;28426;42.872;25.314;2023-03-01T03:30:51;97618.25;;;2.32;100.00
42771;BME280;28426;42.872;25.314;2023-03-01T03:33:22;97617.50;;;2.30;100.00
42771;BME280;28426;42.872;25.314;2023-03-01T03:35:52;97623.59;;;2.42;100.00
42771;BME280;28426;42.872;25.314;2023-03-01T03:38:23;97630.06;;;2.50;100.00
42771;BME280;28426;42.872;25.314;2023-03-01T03:41:00;97621.56;;;2.57;100.00
42771;BME280;28426;42.872;25.314;2023-03-01T03:43:34;97619.78;;;2.58;100.00
42771;BME280;28426;42.872;25.314;2023-03-01T03:46:07;97620.97;;;2.54;100.00
42771;BME280;28426;42.872;25.314;2023-03-01T03:48:41;97623.72;;;2.41;100.00
42771;BME280;28426;42.872;25.314;2023-03-01T03:51:14;97627.44;;;2.27;100.00
42771;BME280;28426;42.872;25.314;2023-03-01T03:53:45;97620.50;;;2.37;100.00
42771;BME280;28426;42.872;25.314;2023-03-01T03:56:16;97622.91;;;2.40;100.00
42771;BME280;28426;42.872;25.314;2023-03-01T03:58:46;97614.28;;;2.27;100.00
42771;BME280;28426;42.872;25.314;2023-03-01T04:01:20;97613.91;;;2.20;100.00
42771;BME280;28426;42.872;25.314;2023-03-01T04:03:51;97623.38;;;2.22;100.00
42771;BME280;28426;42.872;25.314;2023-03-01T04:06:21;97614.03;;;2.30;100.00
42771;BME280;28426;42.872;25.314;2023-03-01T04:08:52;97626.47;;;2.28;100.00
42771;BME280;28426;42.872;25.314;2023-03-01T04:11:27;97635.00;;;2.20;100.00
42771;BME280;28426;42.872;25.314;2023-03-01T04:13:58;97622.53;;;2.22;100.00
42771;BME280;28426;42.872;25.314;2023-03-01T04:16:34;97615.72;;;2.31;100.00
42771;BME280;28426;42.872;25.314;2023-03-01T04:19:04;97622.66;;;2.32;100.00
42771;BME280;28426;42.872;25.314;2023-03-01T04:21:36;97628.41;;;2.26;100.00
42771;BME280;28426;42.872;25.314;2023-03-01T04:24:08;97625.66;;;2.16;100.00
42771;BME280;28426;42.872;25.314;2023-03-01T04:26:38;97632.97;;;2.12;100.00
42771;BME280;28426;42.872;25.314;2023-03-01T04:29:09;97621.44;;;2.25;100.00
42771;BME280;28426;42.872;25.314;2023-03-01T04:31:42;97625.06;;;2.35;100.00
42771;BME280;28426;42.872;25.314;2023-03-01T04:34:13;97624.22;;;2.46;100.00
42771;BME280;28426;42.872;25.314;2023-03-01T04:36:43;97625.03;;;2.46;100.00
42771;BME280;28426;42.872;25.314;2023-03-01T04:39:14;97607.72;;;2.32;100.00
42771;BME280;28426;42.872;25.314;2023-03-01T04:41:44;97628.41;;;2.26;100.00
42771;BME280;28426;42.872;25.314;2023-03-01T04:44:15;97617.97;;;2.13;100.00
42771;BME280;28426;42.872;25.314;2023-03-01T04:46:51;97623.59;;;2.19;100.00
42771;BME280;28426;42.872;25.314;2023-03-01T04:49:21;97610.81;;;2.26;100.00
42771;BME280;28426;42.872;25.314;2023-03-01T04:51:52;97621.34;;;2.38;100.00
42771;BME280;28426;42.872;25.314;2023-03-01T04:54:23;97619.88;;;2.45;100.00
42771;BME280;28426;42.872;25.314;2023-03-01T04:56:54;97625.28;;;2.43;100.00
42771;BME280;28426;42.872;25.314;2023-03-01T04:59:24;97630.44;;;2.33;100.00
42771;BME280;28426;42.872;25.314;2023-03-01T05:01:58;97621.72;;;2.21;100.00
42771;BME280;28426;42.872;25.314;2023-03-01T05:04:30;97625.53;;;2.17;100.00
42771;BME280;28426;42.872;25.314;2023-03-01T05:07:01;97617.63;;;2.29;100.00
42771;BME280;28426;42.872;25.314;2023-03-01T05:09:31;97611.53;;;2.28;100.00
42771;BME280;28426;42.872;25.314;2023-03-01T05:12:03;97618.72;;;2.38;100.00
42771;BME280;28426;42.872;25.314;2023-03-01T05:14:33;97620.00;;;2.43;100.00
42771;BME280;28426;42.872;25.314;2023-03-01T05:17:08;97618.59;;;2.39;100.00
42771;BME280;28426;42.872;25.314;2023-03-01T05:19:39;97627.06;;;2.31;100.00
42771;BME280;28426;42.872;25.314;2023-03-01T05:22:10;97625.41;;;2.19;100.00
42771;BME280;28426;42.872;25.314;2023-03-01T05:24:40;97619.31;;;2.18;100.00
42771;BME280;28426;42.872;25.314;2023-03-01T05:27:11;97615.00;;;2.29;100.00
42771;BME280;28426;42.872;25.314;2023-03-01T05:29:42;97631.25;;;2.34;100.00
42771;BME280;28426;42.872;25.314;2023-03-01T05:32:15;97635.59;;;2.35;100.00
42771;BME280;28426;42.872;25.314;2023-03-01T05:34:46;97636.53;;;2.45;100.00
42771;BME280;28426;42.872;25.314;2023-03-01T05:37:16;97635.94;;;2.53;100.00
42771;BME280;28426;42.872;25.314;2023-03-01T05:39:47;97631.00;;;2.60;100.00
42771;BME280;28426;42.872;25.314;2023-03-01T05:42:19;97634.84;;;2.67;100.00
42771;BME280;28426;42.872;25.314;2023-03-01T05:44:49;97640.47;;;2.74;100.00
42771;BME280;28426;42.872;25.314;2023-03-01T05:47:22;97639.13;;;2.80;100.00
42771;BME280;28426;42.872;25.314;2023-03-01T05:49:53;97635.28;;;2.84;100.00
42771;BME280;28426;42.872;25.314;2023-03-01T05:52:24;97641.06;;;2.89;100.00
42771;BME280;28426;42.872;25.314;2023-03-01T05:54:54;97629.44;;;2.92;100.00
42771;BME280;28426;42.872;25.314;2023-03-01T05:57:25;97635.97;;;2.97;100.00
42771;BME280;28426;42.872;25.314;2023-03-01T05:59:58;97634.78;;;3.01;100.00
42771;BME280;28426;42.872;25.314;2023-03-01T06:02:41;97638.84;;;3.06;100.00
42771;BME280;28426;42.872;25.314;2023-03-01T06:05:12;97635.13;;;3.08;100.00
42771;BME280;28426;42.872;25.314;2023-03-01T06:07:43;97637.63;;;3.10;100.00
42771;BME280;28426;42.872;25.314;2023-03-01T06:10:17;97635.00;;;3.10;100.00
42771;BME280;28426;42.872;25.314;2023-03-01T06:12:48;97635.00;;;3.10;100.00
42771;BME280;28426;42.872;25.314;2023-03-01T06:15:19;97635.72;;;3.12;100.00
42771;BME280;28426;42.872;25.314;2023-03-01T06:17:54;97643.38;;;3.15;100.00
42771;BME280;28426;42.872;25.314;2023-03-01T06:20:28;97645.75;;;3.18;100.00
42771;BME280;28426;42.872;25.314;2023-03-01T06:22:58;97640.38;;;3.20;100.00
42771;BME280;28426;42.872;25.314;2023-03-01T06:25:29;97640.13;;;3.23;100.00
42771;BME280;28426;42.872;25.314;2023-03-01T06:28:00;97646.94;;;3.25;100.00
42771;BME280;28426;42.872;25.314;2023-03-01T06:30:31;97652.91;;;3.27;100.00
42771;BME280;28426;42.872;25.314;2023-03-01T06:33:05;97649.31;;;3.29;100.00
42771;BME280;28426;42.872;25.314;2023-03-01T06:35:35;97651.84;;;3.30;100.00
42771;BME280;28426;42.872;25.314;2023-03-01T06:38:06;97649.19;;;3.30;100.00
42771;BME280;28426;42.872;25.314;2023-03-01T06:40:37;97653.50;;;3.31;100.00
42771;BME280;28426;42.872;25.314;2023-03-01T06:43:08;97647.28;;;3.32;100.00
42771;BME280;28426;42.872;25.314;2023-03-01T06:45:38;97647.28;;;3.32;100.00
42771;BME280;28426;42.872;25.314;2023-03-01T06:48:13;97648.09;;;3.33;100.00
42771;BME280;28426;42.872;25.314;2023-03-01T06:50:43;97649.91;;;3.32;100.00
42771;BME280;28426;42.872;25.314;2023-03-01T06:53:14;97654.09;;;3.35;100.00
42771;BME280;28426;42.872;25.314;2023-03-01T06:55:45;97653.25;;;3.34;100.00
42771;BME280;28426;42.872;25.314;2023-03-01T06:58:15;97649.53;;;3.37;100.00
42771;BME280;28426;42.872;25.314;2023-03-01T07:00:46;97642.34;;;3.39;100.00
42771;BME280;28426;42.872;25.314;2023-03-01T07:03:19;97642.19;;;3.40;100.00
42771;BME280;28426;42.872;25.314;2023-03-01T07:05:50;97653.47;;;3.43;100.00
42771;BME280;28426;42.872;25.314;2023-03-01T07:08:21;97656.00;;;3.44;100.00
42771;BME280;28426;42.872;25.314;2023-03-01T07:10:55;97652.13;;;3.48;100.00
42771;BME280;28426;42.872;25.314;2023-03-01T07:13:26;97652.00;;;3.50;100.00
42771;BME280;28426;42.872;25.314;2023-03-01T07:15:56;97650.19;;;3.50;100.00
42771;BME280;28426;42.872;25.314;2023-03-01T07:18:29;97651.63;;;3.55;100.00
42771;BME280;28426;42.872;25.314;2023-03-01T07:21:04;97654.00;;;3.58;100.00
42771;BME280;28426;42.872;25.314;2023-03-01T07:23:35;97649.31;;;3.61;100.00
42771;BME280;28426;42.872;25.314;2023-03-01T07:26:05;97647.53;;;3.62;100.00
42771;BME280;28426;42.872;25.314;2023-03-01T07:28:36;97653.38;;;3.65;100.00
42771;BME280;28426;42.872;25.314;2023-03-01T07:31:07;97650.59;;;3.67;100.00
42771;BME280;28426;42.872;25.314;2023-03-01T07:33:40;97649.63;;;3.68;100.00
42771;BME280;28426;42.872;25.314;2023-03-01T07:36:13;97648.66;;;3.69;100.00
42771;BME280;28426;42.872;25.314;2023-03-01T07:38:43;97649.50;;;3.70;100.00
42771;BME280;28426;42.872;25.314;2023-03-01T07:41:14;97644.22;;;3.70;100.00
42771;BME280;28426;42.872;25.314;2023-03-01T07:43:45;97647.72;;;3.70;100.00
42771;BME280;28426;42.872;25.314;2023-03-01T07:46:15;97648.66;;;3.69;100.00
42771;BME280;28426;42.872;25.314;2023-03-01T07:48:49;97648.66;;;3.69;100.00
42771;BME280;28426;42.872;25.314;2023-03-01T07:51:20;97648.66;;;3.69;100.00
42771;BME280;28426;42.872;25.314;2023-03-01T07:53:51;97656.22;;;3.74;100.00
42771;BME280;28426;42.872;25.314;2023-03-01T07:56:21;97651.75;;;3.74;100.00
42771;BME280;28426;42.872;25.314;2023-03-01T07:58:52;97650.94;;;3.74;100.00
42771;BME280;28426;42.872;25.314;2023-03-01T08:01:23;97652.47;;;3.76;100.00
42771;BME280;28426;42.872;25.314;2023-03-01T08:03:56;97649.84;;;3.76;100.00
42771;BME280;28426;42.872;25.314;2023-03-01T08:06:27;97654.88;;;3.79;99.94
42771;BME280;28426;42.872;25.314;2023-03-01T08:08:58;97645.97;;;3.81;100.00
42771;BME280;28426;42.872;25.314;2023-03-01T08:11:29;97647.66;;;3.82;99.92
42771;BME280;28426;42.872;25.314;2023-03-01T08:14:00;97646.09;;;3.79;99.19
42771;BME280;28426;42.872;25.314;2023-03-01T08:16:31;97646.94;;;3.79;99.35
42771;BME280;28426;42.872;25.314;2023-03-01T08:19:07;97646.94;;;3.79;98.89
42771;BME280;28426;42.872;25.314;2023-03-01T08:21:38;97644.31;;;3.79;99.00
42771;BME280;28426;42.872;25.314;2023-03-01T08:24:08;97640.69;;;3.81;99.11
42771;BME280;28426;42.872;25.314;2023-03-01T08:26:40;97635.41;;;3.81;99.05
42771;BME280;28426;42.872;25.314;2023-03-01T08:29:10;97645.13;;;3.80;98.46
42771;BME280;28426;42.872;25.314;2023-03-01T08:31:41;97642.63;;;3.78;98.18
42771;BME280;28426;42.872;25.314;2023-03-01T08:34:16;97649.59;;;3.79;98.31
42771;BME280;28426;42.872;25.314;2023-03-01T08:36:47;97646.78;;;3.81;98.65
42771;BME280;28426;42.872;25.314;2023-03-01T08:39:20;97644.88;;;3.83;98.52
42771;BME280;28426;42.872;25.314;2023-03-01T08:41:51;97648.22;;;3.85;98.60
42771;BME280;28426;42.872;25.314;2023-03-01T08:44:21;97642.81;;;3.87;98.66
42771;BME280;28426;42.872;25.314;2023-03-01T08:46:52;97645.19;;;3.90;98.49
42771;BME280;28426;42.872;25.314;2023-03-01T08:49:25;97644.22;;;3.91;98.52
42771;BME280;28426;42.872;25.314;2023-03-01T08:51:56;97644.81;;;3.95;98.71
42771;BME280;28426;42.872;25.314;2023-03-01T08:54:27;97649.00;;;3.97;98.56
42771;BME280;28426;42.872;25.314;2023-03-01T08:56:57;97656.66;;;4.00;98.51
42771;BME280;28426;42.872;25.314;2023-03-01T08:59:29;97657.63;;;3.99;98.35
42771;BME280;28426;42.872;25.314;2023-03-01T09:02:04;97654.47;;;4.05;98.23
42771;BME280;28426;42.872;25.314;2023-03-01T09:04:38;97654.22;;;4.09;98.08
42771;BME280;28426;42.872;25.314;2023-03-01T09:07:08;97656.72;;;4.10;98.39
42771;BME280;28426;42.872;25.314;2023-03-01T09:09:39;97651.03;;;4.15;98.27
42771;BME280;28426;42.872;25.314;2023-03-01T09:12:10;97650.09;;;4.16;98.13
42771;BME280;28426;42.872;25.314;2023-03-01T09:14:40;97650.09;;;4.16;97.50
42771;BME280;28426;42.872;25.314;2023-03-01T09:17:11;97651.75;;;4.17;97.41
42771;BME280;28426;42.872;25.314;2023-03-01T09:19:44;97660.38;;;4.19;97.60
42771;BME280;28426;42.872;25.314;2023-03-01T09:22:15;97655.81;;;4.21;97.33
42771;BME280;28426;42.872;25.314;2023-03-01T09:24:46;97652.06;;;4.24;97.57
42771;BME280;28426;42.872;25.314;2023-03-01T09:27:16;97650.00;;;4.27;97.81
42771;BME280;28426;42.872;25.314;2023-03-01T09:29:47;97653.06;;;4.32;97.65
42771;BME280;28426;42.872;25.314;2023-03-01T09:32:18;97652.13;;;4.34;97.56
42771;BME280;28426;42.872;25.314;2023-03-01T09:34:51;97646.56;;;4.37;97.19
42771;BME280;28426;42.872;25.314;2023-03-01T09:37:37;97641.03;;;4.40;97.18
42771;BME280;28426;42.872;25.314;2023-03-01T09:40:14;97653.97;;;4.43;96.94
42771;BME280;28426;42.872;25.314;2023-03-01T09:42:50;97644.34;;;4.42;96.44
42771;BME280;28426;42.872;25.314;2023-03-01T09:45:27;97639.06;;;4.42;96.31
42771;BME280;28426;42.872;25.314;2023-03-01T09:48:02;97635.47;;;4.43;96.09
42771;BME280;28426;42.872;25.314;2023-03-01T09:50:39;97634.75;;;4.41;95.87
42771;BME280;28426;42.872;25.314;2023-03-01T09:53:13;97635.47;;;4.43;96.06
42771;BME280;28426;42.872;25.314;2023-03-01T09:55:48;97637.00;;;4.45;96.31
42771;BME280;28426;42.872;25.314;2023-03-01T09:58:37;97632.28;;;4.49;96.18
42771;BME280;28426;42.872;25.314;2023-03-01T10:01:25;97623.38;;;4.50;96.16
42771;BME280;28426;42.872;25.314;2023-03-01T10:04:12;97620.47;;;4.53;96.24
42771;BME280;28426;42.872;25.314;2023-03-01T10:06:54;97632.47;;;4.57;95.88
42771;BME280;28426;42.872;25.314;2023-03-01T10:09:29;97627.19;;;4.57;95.80
42771;BME280;28426;42.872;25.314;2023-03-01T10:12:07;97622.75;;;4.58;95.12
42771;BME280;28426;42.872;25.314;2023-03-01T10:14:43;97626.34;;;4.57;94.99
42771;BME280;28426;42.872;25.314;2023-03-01T10:17:26;97622.75;;;4.58;95.05
42771;BME280;28426;42.872;25.314;2023-03-01T10:20:14;97622.59;;;4.60;95.08
42771;BME280;28426;42.872;25.314;2023-03-01T10:22:48;97619.81;;;4.61;95.15
42771;BME280;28426;42.872;25.314;2023-03-01T10:25:40;97618.81;;;4.62;94.87
42771;BME280;28426;42.872;25.314;2023-03-01T10:28:16;97616.06;;;4.64;94.21
42771;BME280;28426;42.872;25.314;2023-03-01T10:30:47;97620.53;;;4.63;94.16
42771;BME280;28426;42.872;25.314;2023-03-01T10:33:23;97616.91;;;4.64;94.22
42771;BME280;28426;42.872;25.314;2023-03-01T10:35:55;97611.50;;;4.66;93.97
42771;BME280;28426;42.872;25.314;2023-03-01T10:38:30;97609.66;;;4.66;93.88
42771;BME280;28426;42.872;25.314;2023-03-01T10:41:05;97599.94;;;4.67;94.13
42771;BME280;28426;42.872;25.314;2023-03-01T10:43:44;97603.25;;;4.69;93.83
42771;BME280;28426;42.872;25.314;2023-03-01T10:46:26;97594.38;;;4.70;93.70
42771;BME280;28426;42.872;25.314;2023-03-01T10:49:07;97590.63;;;4.73;93.60
42771;BME280;28426;42.872;25.314;2023-03-01T10:51:46;97590.75;;;4.71;93.51
42771;BME280;28426;42.872;25.314;2023-03-01T10:54:22;97588.69;;;4.75;93.52
42771;BME280;28426;42.872;25.314;2023-03-01T10:56:55;97587.56;;;4.77;93.86
42771;BME280;28426;42.872;25.314;2023-03-01T10:59:28;97588.28;;;4.79;93.95
42771;BME280;28426;42.872;25.314;2023-03-01T11:02:18;97587.03;;;4.83;93.72
42771;BME280;28426;42.872;25.314;2023-03-01T11:04:59;97565.47;;;4.78;93.64
42771;BME280;28426;42.872;25.314;2023-03-01T11:07:30;97581.31;;;4.88;93.27
42771;BME280;28426;42.872;25.314;2023-03-01T11:10:11;97580.09;;;4.92;93.49
42771;BME280;28426;42.872;25.314;2023-03-01T11:12:42;97573.00;;;4.93;93.66
42771;BME280;28426;42.872;25.314;2023-03-01T11:15:21;97567.56;;;4.94;93.11
42771;BME280;28426;42.872;25.314;2023-03-01T11:17:53;97567.41;;;4.96;93.17
42771;BME280;28426;42.872;25.314;2023-03-01T11:20:39;97560.88;;;5.00;93.14
42771;BME280;28426;42.872;25.314;2023-03-01T11:23:11;97566.03;;;5.02;92.61
42771;BME280;28426;42.872;25.314;2023-03-01T11:25:48;97567.69;;;5.03;92.61
42771;BME280;28426;42.872;25.314;2023-03-01T11:28:23;97559.63;;;5.04;92.50
42771;BME280;28426;42.872;25.314;2023-03-01T11:30:57;97564.78;;;5.06;92.60
42771;BME280;28426;42.872;25.314;2023-03-01T11:33:40;97554.06;;;5.07;92.31
42771;BME280;28426;42.872;25.314;2023-03-01T11:36:19;97547.78;;;5.08;92.39
42771;BME280;28426;42.872;25.314;2023-03-01T11:38:55;97540.84;;;5.07;91.85
42771;BME280;28426;42.872;25.314;2023-03-01T11:41:31;97548.78;;;5.07;91.87
42771;BME280;28426;42.872;25.314;2023-03-01T11:44:11;97543.47;;;5.07;91.50
42771;BME280;28426;42.872;25.314;2023-03-01T11:46:57;97541.81;;;5.06;91.70
42771;BME280;28426;42.872;25.314;2023-03-01T11:49:45;97529.28;;;5.08;91.63
42771;BME280;28426;42.872;25.314;2023-03-01T11:52:23;97529.00;;;5.12;91.96
42771;BME280;28426;42.872;25.314;2023-03-01T11:55:19;97519.94;;;5.14;91.72
42771;BME280;28426;42.872;25.314;2023-03-01T11:58:14;97519.69;;;5.17;91.62
42771;BME280;28426;42.872;25.314;2023-03-01T12:01:06;97513.41;;;5.08;91.31
42771;BME280;28426;42.872;25.314;2023-03-01T12:04:03;97524.84;;;5.19;90.61
42771;BME280;28426;42.872;25.314;2023-03-01T12:06:48;97522.47;;;5.16;90.17
42771;BME280;28426;42.872;25.314;2023-03-01T12:09:50;97519.28;;;5.12;90.03
42771;BME280;28426;42.872;25.314;2023-03-01T12:12:33;97518.56;;;5.10;90.55
42771;BME280;28426;42.872;25.314;2023-03-01T12:15:24;97518.69;;;5.08;90.65
42771;BME280;28426;42.872;25.314;2023-03-01T12:18:17;97513.41;;;5.08;90.85
42771;BME280;28426;42.872;25.314;2023-03-01T12:21:01;97516.06;;;5.08;90.52
42771;BME280;28426;42.872;25.314;2023-03-01T12:23:52;97518.69;;;5.08;90.63
42771;BME280;28426;42.872;25.314;2023-03-01T12:26:28;97505.59;;;5.07;90.80
42771;BME280;28426;42.872;25.314;2023-03-01T12:29:16;97510.06;;;5.06;90.68
42771;BME280;28426;42.872;25.314;2023-03-01T12:35:09;97510.34;;;5.03;90.45
42771;BME280;28426;42.872;25.314;2023-03-01T12:37:54;97491.97;;;5.02;90.42
42771;BME280;28426;42.872;25.314;2023-03-01T12:40:54;97495.59;;;5.01;90.29
42771;BME280;28426;42.872;25.314;2023-03-01T12:43:39;97500.19;;;4.99;90.32
42771;BME280;28426;42.872;25.314;2023-03-01T12:46:21;97503.66;;;4.99;90.15
42771;BME280;28426;42.872;25.314;2023-03-01T12:49:04;97501.16;;;4.97;90.26
42771;BME280;28426;42.872;25.314;2023-03-01T12:51:39;97498.38;;;4.99;90.27
42771;BME280;28426;42.872;25.314;2023-03-01T12:54:15;97503.66;;;4.99;90.71
42771;BME280;28426;42.872;25.314;2023-03-01T12:56:48;97494.75;;;5.00;90.71
42771;BME280;28426;42.872;25.314;2023-03-01T12:59:24;97492.94;;;5.01;90.54
42771;BME280;28426;42.872;25.314;2023-03-01T13:02:03;97499.09;;;5.01;90.90
42771;BME280;28426;42.872;25.314;2023-03-01T13:04:53;97491.16;;;5.01;90.79
42771;BME280;28426;42.872;25.314;2023-03-01T13:07:33;97491.84;;;5.03;90.82
42771;BME280;28426;42.872;25.314;2023-03-01T13:10:15;97493.50;;;5.04;90.95
42771;BME280;28426;42.872;25.314;2023-03-01T13:13:00;97478.47;;;4.95;90.79
42771;BME280;28426;42.872;25.314;2023-03-01T13:15:34;97492.25;;;5.08;91.24
42771;BME280;28426;42.872;25.314;2023-03-01T13:18:28;97496.56;;;5.09;91.18
42771;BME280;28426;42.872;25.314;2023-03-01T13:21:05;97490.31;;;5.10;91.01
42771;BME280;28426;42.872;25.314;2023-03-01T13:23:37;97498.09;;;5.12;90.87
42771;BME280;28426;42.872;25.314;2023-03-01T13:26:12;97497.25;;;5.12;90.83
42771;BME280;28426;42.872;25.314;2023-03-01T13:29:11;97498.25;;;5.10;91.21
42771;BME280;28426;42.872;25.314;2023-03-01T13:31:57;97494.88;;;5.08;90.96
42771;BME280;28426;42.872;25.314;2023-03-01T13:34:52;97489.91;;;5.05;91.09
42771;BME280;28426;42.872;25.314;2023-03-01T13:37:43;97490.56;;;5.07;91.48